Henderson, Nevada Weather observations

Data are for observation ending at time listed.
 Day   Time    Ave.   Ave.  Ave.  Vector   Max.   Stn.    Total    Solar   Ave.  
  of    of     Air    Rel.  Wind   Wind    Wind   Baro.  Precip.   Rad.    Soil  
Year   Day     Temp.  Hum.  Speed  Dir.    Gust   Pres.                    Temp. 
2014   (PST)    F      %     mph   deg.    mph     mb.     in.     W/m2     F   
------------------------------------------------------------------------------
 263    2:40   78.6    23    1.0   180      2.1   934.9    0.00       0    75.5
 263    2:50   78.5    25    1.1   231      1.8   934.8    0.00       0    75.5
 263    3:00   77.6    26    1.0   287      2.3   934.9    0.00       0    75.3
 263    3:10   77.4    25    0.8   245      1.8   934.9    0.00       0    75.0
 263    3:20   77.7    24    1.6   221      3.1   934.9    0.00       0    74.8
 263    3:30   77.8    26    1.4   257      3.7   935.0    0.00       0    74.8
 263    3:40   78.1    26    1.7   203      2.4   934.9    0.00       0    75.1
 263    3:50   78.9    25    2.6   194      3.9   935.0    0.00       0    75.5
 263    4:00   79.4    25    1.0   241      3.2   935.1    0.00       0    75.9
 263    4:10   79.4    25    2.1   202      3.6   935.2    0.00       0    76.2
 263    4:20   78.6    27    0.8   267      2.4   935.3    0.00       0    76.4
 263    4:30   78.1    27    0.7   290      2.0   935.3    0.00       0    76.2
 263    4:40   77.7    27    0.2   272      1.1   935.4    0.00       0    76.0
 263    4:50   77.4    26    0.7   240      1.4   935.5    0.00       0    75.6
 263    5:00   77.1    27    0.1   273      0.7   935.5    0.00       0    75.2
 263    5:10   76.5    27    0.0   306      0.5   935.5    0.00       0    74.7
 263    5:20   75.3    32    0.5   273      1.8   935.7    0.00       0    74.2
 263    5:30   75.2    29    0.8   243      1.6   935.7    0.00       6    73.7
 263    5:40   75.1    30    0.3   191      1.4   935.8    0.00      10    73.2
 263    5:50   74.8    30    0.2   176      1.4   936.0    0.00      16    72.7
 263    6:00   74.6    32    0.2   136      1.0   936.1    0.00      20    72.2
 263    6:10   74.9    31    1.2   196      2.2   936.2    0.00      28    71.8
 263    6:20   75.7    30    0.4   158      1.5   936.4    0.00      93    71.9
 263    6:30   76.5    30    0.5   195      1.7   936.4    0.00     172    72.2
 263    6:40   79.1    28    0.8   188      2.0   936.5    0.00     177    73.4
 263    6:50   81.5    25    0.4    93      1.8   936.6    0.00     127    75.6
 263    7:00   80.8    25    0.9    98      2.6   936.7    0.00     120    76.6
 263    7:10   82.0    24    1.0   109      2.4   936.6    0.00     329    78.7
 263    7:20   82.8    23    1.3   107      3.1   936.8    0.00     160    81.8
 263    7:30   82.5    24    0.3   160      1.1   936.8    0.00     135    81.8
 263    7:40   82.1    24    0.6   125      2.3   936.9    0.00     101    81.1
 263    7:50   81.7    24    1.5   104      2.6   936.9    0.00     151    80.9
 263    8:00   82.8    23    1.9   103      3.1   936.9    0.00     334    81.9
 263    8:10   83.9    22    0.8    89      2.1   937.0    0.00     230    84.0
 263    8:20   85.6    20    0.2   145      1.8   937.1    0.00     458    85.5
 263    8:30   86.2    20    0.7   268      2.9   937.1    0.00     343    87.3
 263    8:40   86.8    20    1.9   309      4.5   937.1    0.00     662    90.1
 263    8:50   87.3    20    2.1   311      4.2   937.2    0.00     725    93.3
 263    9:00   87.3    19    2.7   297      4.1   937.1    0.00     748    95.4
 263    9:10   88.2    19    2.2   301      4.2   937.1    0.00     710    96.9
 263    9:20   89.0    18    2.2   318      4.7   937.1    0.00     640    98.1
 263    9:30   89.7    18    1.3   316      3.0   937.1    0.00     806    98.6
 263    9:40   90.6    17    2.0   349      5.2   937.1    0.00     808    100.1
 263    9:50   90.4    18    2.5   285      6.1   937.0    0.00     844    101.0
 263   10:00   90.5    18    2.2   312      5.5   936.9    0.00     778    101.5
 263   10:10   92.0    17    2.3     8      4.6   936.9    0.00     838    101.9
 263   10:20   93.0    17    1.9    30      6.2   936.8    0.00     853    102.7
 263   10:30   94.7    16    1.5    47      4.4   936.7    0.00     865    103.6
 263   10:40   94.6    16    1.9    24      4.5   936.6    0.00     881    104.4
 263   10:50   95.1    16    2.2   304      5.5   936.5    0.00     901    105.0
 263   11:00   95.7    16    1.8    52      5.6   936.4    0.00     942    105.7
 263   11:10   96.4    15    2.2    12      5.0   936.3    0.00     950    106.3
 263   11:20   95.4    16    2.5   318      5.4   936.1    0.00     934    106.6
 263   11:30   95.6    16    2.7   346      5.6   935.9    0.00     936    106.5
 263   11:40   97.0    15    3.9    75      9.8   935.8    0.00     930    106.4
 263   11:50   97.3    15    2.7    65      7.0   935.6    0.00     903    106.1
 263   12:00   96.0    16    3.1   114      7.1   935.5    0.00     332    104.8
 263   12:10   96.4    16    2.6   188      7.7   935.3    0.00     972    103.4
 263   12:20   97.7    16    1.8   250      4.2   935.1    0.00     954    105.0
 263   12:30   97.4    16    2.1   219      5.9   934.9    0.00     981    106.1
 263   12:40   98.8    15    3.2   169      8.8   934.7    0.00     989    106.8
 263   12:50   98.3    15    6.9   107     12.0   934.5    0.00     844    106.4
 263   13:00   98.4    15    6.6    99     13.4   934.4    0.00    1036    105.8
 263   13:10   98.2    15    4.7   118     10.0   934.3    0.00    1019    106.1
 263   13:20   99.1    15    3.1   137      8.8   934.2    0.00     729    106.7
 263   13:30   98.4    15    3.9   113      8.5   934.1    0.00     749    105.8
 263   13:40   98.3    15    3.6   117      7.9   933.9    0.00     679    105.4
 263   13:50   98.2    15    3.8   141     10.1   933.8    0.00     799    105.1
 263   14:00   98.8    15    1.9   325      4.7   933.6    0.00     794    105.6
 263   14:10   98.7    15    3.9   303      7.2   933.4    0.00     749    105.8
 263   14:20   99.4    15    3.1   211     10.7   933.3    0.00     725    105.6
 263   14:30   98.9    15    2.7   188      6.9   933.1    0.00     695    105.6
 263   14:40   98.7    16    2.7   101      7.0   933.0    0.00     660    105.6
 263   14:50   98.8    16    4.0   103     10.6   932.9    0.00     630    105.4
 263   15:00   99.3    16    2.8   170     12.5   932.8    0.00     546    105.3
 263   15:10   99.0    16    3.0   180     10.4   932.7    0.00     304    104.8
 263   15:20   98.1    17    3.1   193      8.0   932.7    0.00     479    103.5
 263   15:30   98.1    17    3.3   135      9.3   932.6    0.00     245    103.2
 263   15:40   97.0    18    2.1   132      6.2   932.7    0.00     131    101.6
 263   15:50   96.6    19    2.0   193      7.5   932.8    0.00     129    100.2
 263   16:00   96.9    19    3.6   198     11.5   932.7    0.00     134    99.2
 263   16:10   96.1    20    4.8   189     11.5   932.7    0.00     150    98.4
 263   16:20   95.8    20    6.8   185     16.3   932.7    0.00     137    97.9
 263   16:30   95.1    21    4.9   168     14.2   932.7    0.00     110    97.2
 263   16:40   95.1    21    5.7   189     13.6   932.6    0.00      74    96.4
 263   16:50   94.3    22    4.7   173     11.8   932.6    0.00      47    95.6
 263   17:00   94.2    22    4.3   164     10.2   932.7    0.00      39    94.8
 263   17:10   93.7    23    3.1   161     10.6   932.7    0.00      37    94.1
 263   17:20   93.7    23    4.2   178     11.9   932.8    0.00      31    93.5
 263   17:30   93.3    24    4.5   162     12.3   932.9    0.00      17    93.0
 263   17:40   92.9    24    3.6   152      9.7   932.9    0.00       8    92.5
 263   17:50   92.7    24    3.9   174     10.5   932.9    0.00       2    92.1
 263   18:00   92.5    24    3.3   158     10.4   932.9    0.00       0    91.8
 263   18:10   92.6    24    3.2   158      8.2   933.0    0.00       0    91.6
 263   18:20   92.4    24    4.2   183     10.2   933.1    0.00       0    91.5
 263   18:30   92.1    25    3.7   203      8.0   933.2    0.00       0    91.3
 263   18:40   90.7    26    3.0   217      6.6   933.3    0.00       0    90.5
 263   18:50   90.7    23    2.2   229      7.5   933.4    0.00       0    89.9
 263   19:00   90.8    22    2.7   250      7.8   933.4    0.00       0    89.5
 263   19:10   90.8    22    2.8   248      6.8   933.6    0.00       0    89.3
 263   19:20   90.6    22    2.2   239      5.4   933.8    0.00       0    89.1
 263   19:30   90.4    22    3.9   254      7.7   933.9    0.00       0    89.0
 263   19:40   90.4    23    2.4   229      6.2   934.1    0.00       0    89.0
 263   19:50   90.3    23    2.5   249      6.6   934.1    0.00       0    89.0
 263   20:00   90.2    23    3.8   262      8.2   934.2    0.00       0    88.9
 263   20:10   89.7    23    3.2   303      7.3   934.3    0.00       0    88.8
 263   20:20   87.9    22    4.2   313      8.2   934.5    0.00       0    88.4
 263   20:30   87.0    23    4.3   314      8.3   934.5    0.00       0    87.8
 263   20:40   86.3    26    2.7   347      6.6   934.7    0.00       0    87.2
 263   20:50   84.9    29    1.7   359      4.5   934.7    0.00       0    86.4
 263   21:00   84.2    34    1.6    29      4.1   934.9    0.00       0    85.4
 263   21:10   83.4    39    2.3    11      6.2   935.1    0.00       0    84.7
 263   21:20   82.9    40    0.6     9      2.6   935.1    0.00       0    84.0
 263   21:30   82.4    42    2.8   326      6.6   935.1    0.00       0    83.4
 263   21:40   82.1    42    3.1   334      5.9   935.1    0.00       0    82.9
 263   21:50   81.6    44    3.0   305      5.0   935.2    0.00       0    82.5
 263   22:00   80.7    49    3.3   326      5.8   935.2    0.00       0    81.1
 263   22:10   80.4    50    2.3   333      5.1   935.4    0.00       0    80.5
 263   22:20   80.0    54    1.6   328      3.6   935.3    0.00       0    79.7
 263   22:30   79.5    56    1.6   322      3.4   935.4    0.00       0    78.9
 263   22:40   79.0    59    1.6   299      2.6   935.5    0.00       0    78.6
 263   22:50   78.7    61    1.6   306      2.8   935.6    0.00       0    78.4
 263   23:00   78.8    60    1.1   338      2.8   935.6    0.00       0    78.2
 263   23:10   78.8    61    1.6   345      3.5   935.6    0.00       0    78.2
 263   23:20   78.8    58    1.8    24      4.2   935.8    0.00       0    78.1
 263   23:30   78.6    57    1.6    15      3.9   935.7    0.00       0    77.7
 263   23:40   78.2    59    1.1   338      2.9   935.7    0.00       0    77.0
 263   23:50   78.1    59    1.4    15      3.6   935.9    0.00       0    76.7
 264    0:00   77.7    60    1.9   352      5.6   936.0    0.00       0    76.7
 264    0:10   77.2    59    2.4   319      5.8   936.3    0.00       0    76.7
 264    0:20   74.8    72    1.3   352      4.8   936.7    0.08       0    75.7
 264    0:30   72.0    79    2.5   320      4.7   936.2    0.02       0    73.6
 264    0:40   71.3    85    0.7    70      2.6   936.3    0.00       0    72.1
 264    0:50   71.4    85    1.4   272      3.0   936.2    0.00       0    71.4
 264    1:00   72.4    82    1.7   270      3.0   936.2    0.00       0    71.0
 264    1:10   72.9    79    2.0   271      3.7   936.2    0.00       0    70.8
 264    1:20   73.2    82    0.5   306      2.0   936.3    0.00       0    70.8
 264    1:30   72.3    83    0.3    69      1.5   936.3    0.00       0    70.9
 264    1:40   72.1    81    1.1    59      2.5   936.3    0.00       0    70.8
 264    1:50   72.5    79    0.4   303      1.3   936.3    0.00       0    70.7
 264    2:00   72.6    81    0.6   269      1.4   936.3    0.00       0    70.6
 264    2:10   71.9    84    0.0     0      0.0   936.4    0.00       0    70.4
 264    2:20   71.7    85    0.6   269      2.0   936.3    0.00       0    70.1
 264    2:30   72.0    82    0.3   268      1.7   936.4    0.00       0    69.8

Return to Henderson, Nevada graphs page.


Western Regional Climate Center,wrcc@dri.edu